WEATHER/FLIGHT PLANNING

Hattiesburg Radar

 

 

 

 

Weather Links

Flight Planning Links

 

METAR

2017/10/17 08:53 KHBG 170853Z AUTO 34003KT 10SM CLR 11/09 A3019 RMK AO2 SLP220 T01060089 58005

TAF

2017/10/17 06:27 TAF KHBG 170524Z 1706/1806 01005KT P6SM SKC